Marine Rescue Ps31 — PS31 — position and weather

sailwx.info

Track history (hours):
 
Tides and Currents Weather Stations Pressure Air Temp Water Temp Dewpoint Dewpoint Depression Visibility Wind Speed Wind Dir Waves Ship Positions

Marine Rescue Ps31

Last reported at 2017-Nov-18 01:52 UTC. Time now 2017-Nov-21 17:15 UTC.
Position S 32°43' E 152°09'.

; draft 1.3 m.

Type: SAR. MMSI: 503038350.

Date/timePositionNaut miles runAvg speedWind from/ knotsBaromVisibWave heightAir tempDewpointWater temp
2017-Nov-18 01:52S 32°43' E 152°09'0 0.1
2017-Nov-18 01:30S 32°43' E 152°09'1 2.7
2017-Nov-18 01:00S 32°43' E 152°10'0 0.3
2017-Nov-18 00:31S 32°43' E 152°10'0 0.0
2017-Nov-18 00:00S 32°43' E 152°10'1 2.7
2017-Nov-17 23:31S 32°43' E 152°09'0 0.5
2017-Nov-17 23:00S 32°43' E 152°09'0 0.0
2017-Nov-17 22:30S 32°43' E 152°09'0 0.0
2017-Nov-16 00:14S 32°43' E 152°09'313.0
2017-Nov-16 00:01S 32°43' E 152°05'1 1.5
2017-Nov-15 23:31S 32°42' E 152°04'3 5.6
2017-Nov-15 23:01S 32°43' E 152°07'1 1.9
2017-Nov-15 22:30S 32°43' E 152°09'0 0.0
2017-Nov-15 22:01S 32°43' E 152°09'0 0.0
2017-Nov-14 23:10S 32°43' E 152°09'0 0.0
2017-Nov-14 23:00S 32°43' E 152°09'0 0.0
2017-Nov-14 22:30S 32°43' E 152°09'0 0.0
2017-Nov-14 22:00S 32°43' E 152°09'0 0.0
2017-Nov-14 21:30S 32°43' E 152°09'0 0.0
2017-Nov-13 01:41S 32°43' E 152°09'0 0.2
2017-Nov-13 01:10S 32°43' E 152°09'0 0.9
2017-Nov-13 01:00S 32°43' E 152°09'1 2.5
2017-Nov-13 00:30S 32°42' E 152°10'3 5.3
2017-Nov-13 00:00S 32°43' E 152°07'2 4.7
2017-Nov-12 23:30S 32°42' E 152°04'4 7.9
2017-Nov-12 23:00S 32°43' E 152°09'0 0.3
2017-Nov-12 22:30S 32°43' E 152°09'0 0.0
2017-Nov-12 04:18S 32°43' E 152°09'3 9.8
2017-Nov-12 04:01S 32°43' E 152°05'1 2.2
2017-Nov-12 03:30S 32°42' E 152°04'4 8.2
2017-Nov-12 03:00S 32°43' E 152°09'4 7.5
2017-Nov-12 02:31S 32°45' E 152°13'4 7.3
2017-Nov-12 02:01S 32°47' E 152°09'3 5.0
2017-Nov-12 01:30S 32°49' E 152°07'3 6.9
2017-Nov-12 01:01S 32°48' E 152°11'5 9.7
2017-Nov-12 00:30S 32°43' E 152°09'0 0.0
2017-Nov-11 07:52S 32°43' E 152°09'0 0.5
2017-Nov-11 07:31S 32°43' E 152°09'3 6.2
2017-Nov-11 07:01S 32°43' E 152°12'4 8.3
2017-Nov-11 06:30S 32°44' E 152°17'5 9.3
2017-Nov-11 06:00S 32°44' E 152°23'5 9.7
2017-Nov-11 05:30S 32°44' E 152°28'1 1.0
2017-Nov-11 04:56S 32°44' E 152°29'716.5
2017-Nov-11 04:31S 32°43' E 152°21'917.6
2017-Nov-11 04:01S 32°43' E 152°10'1 0.7
2017-Nov-11 02:02S 32°43' E 152°09'0 0.0
2017-Nov-11 02:00S 32°43' E 152°09'3 5.4
2017-Nov-11 01:31S 32°43' E 152°12'3 5.4
2017-Nov-11 01:00S 32°43' E 152°09'0 0.0
2017-Nov-11 00:31S 32°43' E 152°09'  
Track history (hours):
 
Tides and Currents Weather Stations Pressure Air Temp Water Temp Dewpoint Dewpoint Depression Visibility Wind Speed Wind Dir Waves Ship Positions

Marine Rescue Ps31

Last reported at 2017-Nov-18 01:52 UTC. Time now 2017-Nov-21 17:15 UTC.
Position S 32°43' E 152°09'.

; draft 1.3 m.

Type: SAR. MMSI: 503038350.

Date/timePositionNaut miles runAvg speedWind from/ knotsBaromVisibWave heightAir tempDewpointWater temp
2017-Nov-18 01:52S 32°43' E 152°09'0 0.1
2017-Nov-18 01:30S 32°43' E 152°09'1 2.7
2017-Nov-18 01:00S 32°43' E 152°10'0 0.3
2017-Nov-18 00:31S 32°43' E 152°10'0 0.0
2017-Nov-18 00:00S 32°43' E 152°10'1 2.7
2017-Nov-17 23:31S 32°43' E 152°09'0 0.5
2017-Nov-17 23:00S 32°43' E 152°09'0 0.0
2017-Nov-17 22:30S 32°43' E 152°09'0 0.0
2017-Nov-16 00:14S 32°43' E 152°09'313.0
2017-Nov-16 00:01S 32°43' E 152°05'1 1.5
2017-Nov-15 23:31S 32°42' E 152°04'3 5.6
2017-Nov-15 23:01S 32°43' E 152°07'1 1.9
2017-Nov-15 22:30S 32°43' E 152°09'0 0.0
2017-Nov-15 22:01S 32°43' E 152°09'0 0.0
2017-Nov-14 23:10S 32°43' E 152°09'0 0.0
2017-Nov-14 23:00S 32°43' E 152°09'0 0.0
2017-Nov-14 22:30S 32°43' E 152°09'0 0.0
2017-Nov-14 22:00S 32°43' E 152°09'0 0.0
2017-Nov-14 21:30S 32°43' E 152°09'0 0.0
2017-Nov-13 01:41S 32°43' E 152°09'0 0.2
2017-Nov-13 01:10S 32°43' E 152°09'0 0.9
2017-Nov-13 01:00S 32°43' E 152°09'1 2.5
2017-Nov-13 00:30S 32°42' E 152°10'3 5.3
2017-Nov-13 00:00S 32°43' E 152°07'2 4.7
2017-Nov-12 23:30S 32°42' E 152°04'4 7.9
2017-Nov-12 23:00S 32°43' E 152°09'0 0.3
2017-Nov-12 22:30S 32°43' E 152°09'0 0.0
2017-Nov-12 04:18S 32°43' E 152°09'3 9.8
2017-Nov-12 04:01S 32°43' E 152°05'1 2.2
2017-Nov-12 03:30S 32°42' E 152°04'4 8.2
2017-Nov-12 03:00S 32°43' E 152°09'4 7.5
2017-Nov-12 02:31S 32°45' E 152°13'4 7.3
2017-Nov-12 02:01S 32°47' E 152°09'3 5.0
2017-Nov-12 01:30S 32°49' E 152°07'3 6.9
2017-Nov-12 01:01S 32°48' E 152°11'5 9.7
2017-Nov-12 00:30S 32°43' E 152°09'0 0.0
2017-Nov-11 07:52S 32°43' E 152°09'0 0.5
2017-Nov-11 07:31S 32°43' E 152°09'3 6.2
2017-Nov-11 07:01S 32°43' E 152°12'4 8.3
2017-Nov-11 06:30S 32°44' E 152°17'5 9.3
2017-Nov-11 06:00S 32°44' E 152°23'5 9.7
2017-Nov-11 05:30S 32°44' E 152°28'1 1.0
2017-Nov-11 04:56S 32°44' E 152°29'716.5
2017-Nov-11 04:31S 32°43' E 152°21'917.6
2017-Nov-11 04:01S 32°43' E 152°10'1 0.7
2017-Nov-11 02:02S 32°43' E 152°09'0 0.0
2017-Nov-11 02:00S 32°43' E 152°09'3 5.4
2017-Nov-11 01:31S 32°43' E 152°12'3 5.4
2017-Nov-11 01:00S 32°43' E 152°09'0 0.0
2017-Nov-11 00:31S 32°43' E 152°09'  

Dump ship's entire track history